createdAt,value
2017-10-17T00:01:47.356Z,21.90
2017-10-17T00:04:15.648Z,20.00
2017-10-17T00:06:43.890Z,17.00
2017-10-17T00:09:12.162Z,14.57
2017-10-17T00:11:40.447Z,18.00
2017-10-17T00:14:08.738Z,16.27
2017-10-17T00:16:37.018Z,16.17
2017-10-17T00:19:05.292Z,19.67
2017-10-17T00:21:33.543Z,16.67
2017-10-17T00:24:02.584Z,17.50
2017-10-17T00:26:30.839Z,14.27
2017-10-17T00:28:59.109Z,18.70
2017-10-17T00:31:27.359Z,15.63
2017-10-17T00:33:55.698Z,18.83
2017-10-17T00:36:26.578Z,15.90
2017-10-17T00:38:54.852Z,21.03
2017-10-17T00:41:23.207Z,17.60
2017-10-17T00:43:51.589Z,15.03
2017-10-17T00:46:19.904Z,15.87
2017-10-17T00:48:48.246Z,19.50
2017-10-17T00:51:22.161Z,15.70
2017-10-17T00:53:50.550Z,17.37
2017-10-17T00:56:18.816Z,16.63
2017-10-17T00:58:47.082Z,19.23
2017-10-17T01:01:15.343Z,15.77
2017-10-17T01:03:44.388Z,18.97
2017-10-17T01:06:12.639Z,16.43
2017-10-17T01:08:40.922Z,15.40
2017-10-17T01:11:09.828Z,15.47
2017-10-17T01:13:38.123Z,15.13
2017-10-17T01:16:06.392Z,17.70
2017-10-17T01:18:34.695Z,15.87
2017-10-17T01:21:08.723Z,19.10
2017-10-17T01:23:44.710Z,19.60
2017-10-17T01:26:18.551Z,15.70
2017-10-17T01:28:47.577Z,17.70
2017-10-17T01:31:15.867Z,16.40
2017-10-17T01:33:45.618Z,16.00
2017-10-17T01:36:14.652Z,16.83
2017-10-17T01:38:44.567Z,15.37
2017-10-17T01:41:12.832Z,15.37
2017-10-17T01:46:49.539Z,16.80
2017-10-17T01:49:32.976Z,18.53
2017-10-17T01:52:07.595Z,19.80
2017-10-17T01:54:40.952Z,15.20
2017-10-17T01:57:09.268Z,16.03
2017-10-17T01:59:41.040Z,16.97
2017-10-17T02:02:10.063Z,17.10
2017-10-17T02:04:38.335Z,18.77
2017-10-17T02:07:06.596Z,15.50
2017-10-17T02:09:43.237Z,23.00
2017-10-17T02:12:11.513Z,17.40
2017-10-17T02:14:39.807Z,19.67
2017-10-17T02:17:08.067Z,18.10
2017-10-17T02:19:36.366Z,16.80
2017-10-17T02:22:04.616Z,19.50
2017-10-17T02:24:44.535Z,19.60
2017-10-17T02:27:12.788Z,18.40
2017-10-17T02:29:46.188Z,18.37
2017-10-17T02:32:14.499Z,17.90
2017-10-17T02:34:43.908Z,20.63
2017-10-17T02:37:12.920Z,15.93
2017-10-17T02:39:41.189Z,19.03
2017-10-17T02:42:10.315Z,17.20
2017-10-17T02:44:38.600Z,16.43
2017-10-17T02:47:07.572Z,24.13
2017-10-17T02:49:38.485Z,17.47
2017-10-17T02:52:07.676Z,23.07
2017-10-17T02:54:35.959Z,19.10
2017-10-17T02:57:04.219Z,17.03
2017-10-17T02:59:33.404Z,24.10
2017-10-17T03:02:02.485Z,16.00
2017-10-17T03:04:36.496Z,16.20
2017-10-17T03:07:04.742Z,16.90
2017-10-17T03:09:32.999Z,18.87
2017-10-17T03:12:01.264Z,17.67
2017-10-17T03:14:30.391Z,19.13
2017-10-17T03:16:58.663Z,18.30
2017-10-17T03:19:26.963Z,23.33
2017-10-17T03:21:55.955Z,21.50
2017-10-17T03:24:27.899Z,17.00
2017-10-17T03:26:56.164Z,18.57
2017-10-17T03:29:24.425Z,17.67
2017-10-17T03:31:52.690Z,19.87
2017-10-17T03:34:21.499Z,16.83
2017-10-17T03:40:20.752Z,15.70
2017-10-17T03:45:43.467Z,21.20
2017-10-17T03:48:11.488Z,17.50
2017-10-17T03:50:39.543Z,16.87
2017-10-17T03:56:03.109Z,16.40
2017-10-17T03:58:33.990Z,15.97
2017-10-17T04:01:02.024Z,16.57
2017-10-17T04:06:58.483Z,15.23
2017-10-17T04:09:26.514Z,21.60
2017-10-17T04:11:54.627Z,19.20
2017-10-17T04:14:26.883Z,20.40
2017-10-17T04:20:14.507Z,20.93
2017-10-17T04:22:42.547Z,17.47
2017-10-17T04:25:18.098Z,20.00
2017-10-17T04:27:46.859Z,15.83
2017-10-17T04:33:22.919Z,14.23
2017-10-17T04:36:02.655Z,16.60
2017-10-17T04:38:30.693Z,14.17
2017-10-17T04:40:58.735Z,17.17
2017-10-17T04:46:36.484Z,13.73
2017-10-17T04:49:11.956Z,16.70
2017-10-17T04:51:44.562Z,15.00
2017-10-17T04:54:33.160Z,15.80
2017-10-17T04:57:02.660Z,14.17
2017-10-17T04:59:39.381Z,13.30
2017-10-17T05:02:15.950Z,16.70
2017-10-17T05:04:48.470Z,13.60
2017-10-17T05:07:18.830Z,14.00
2017-10-17T05:09:50.316Z,11.43
2017-10-17T05:12:22.540Z,12.30
2017-10-17T05:14:50.563Z,12.50
2017-10-17T05:17:25.013Z,13.37
2017-10-17T05:19:55.656Z,14.60
2017-10-17T05:22:29.137Z,13.93
2017-10-17T05:25:00.830Z,14.20
2017-10-17T05:30:41.752Z,18.30
2017-10-17T05:33:20.327Z,18.10
2017-10-17T05:35:48.358Z,16.83
2017-10-17T05:38:16.391Z,16.93
2017-10-17T05:40:44.429Z,16.10
2017-10-17T05:43:14.045Z,22.20
2017-10-17T05:45:42.838Z,20.30
2017-10-17T05:48:14.573Z,15.80
2017-10-17T05:50:55.239Z,17.67
2017-10-17T05:53:23.251Z,13.90
2017-10-17T05:55:52.055Z,19.03
2017-10-17T05:58:20.099Z,15.23
2017-10-17T06:00:48.132Z,19.80
2017-10-17T06:03:16.138Z,23.83
2017-10-17T06:05:44.181Z,17.70
2017-10-17T06:08:12.193Z,19.87
2017-10-17T06:10:40.242Z,17.63
2017-10-17T06:13:08.287Z,17.40
2017-10-17T06:15:36.322Z,15.47
2017-10-17T06:18:04.596Z,15.00
2017-10-17T06:20:33.666Z,15.73
2017-10-17T06:23:01.921Z,16.40
2017-10-17T06:25:30.195Z,15.77
2017-10-17T06:27:58.501Z,16.90
2017-10-17T06:30:26.764Z,14.07
2017-10-17T06:32:55.028Z,14.97
2017-10-17T06:35:23.304Z,17.27
2017-10-17T06:37:51.556Z,15.80
2017-10-17T06:40:20.604Z,15.63
2017-10-17T06:42:48.854Z,14.77
2017-10-17T06:45:17.127Z,16.37
2017-10-17T06:47:46.143Z,17.43
2017-10-17T06:50:14.960Z,16.37
2017-10-17T06:52:43.228Z,22.80
2017-10-17T06:55:11.491Z,16.40
2017-10-17T06:57:39.756Z,18.70
2017-10-17T07:00:08.789Z,16.00
2017-10-17T07:02:37.067Z,15.50
2017-10-17T07:05:05.343Z,17.27
2017-10-17T07:07:33.618Z,17.73
2017-10-17T07:10:01.872Z,17.67
2017-10-17T07:12:31.566Z,18.93
2017-10-17T07:14:59.862Z,20.80
2017-10-17T07:17:28.896Z,17.83
2017-10-17T07:19:57.150Z,18.63
2017-10-17T07:22:25.435Z,22.17
2017-10-17T07:24:54.516Z,18.70
2017-10-17T07:27:22.771Z,19.17
2017-10-17T07:29:51.026Z,20.27
2017-10-17T07:32:20.099Z,22.60
2017-10-17T07:34:49.141Z,19.93
2017-10-17T07:37:17.390Z,18.10
2017-10-17T07:39:45.640Z,19.23
2017-10-17T07:42:13.906Z,19.40
2017-10-17T07:44:42.146Z,20.93
2017-10-17T07:47:10.438Z,21.17
2017-10-17T07:49:38.699Z,22.20
2017-10-17T07:52:06.975Z,19.40
2017-10-17T07:54:35.262Z,19.10
2017-10-17T07:57:03.535Z,22.30
2017-10-17T07:59:31.788Z,26.87
2017-10-17T08:02:00.059Z,23.77
2017-10-17T08:04:28.311Z,22.90
2017-10-17T08:06:56.576Z,21.83
2017-10-17T08:09:24.839Z,20.23
2017-10-17T08:11:53.881Z,20.37
2017-10-17T08:14:22.927Z,25.70
2017-10-17T08:16:51.974Z,27.90
2017-10-17T08:19:20.226Z,22.20
2017-10-17T08:21:48.503Z,20.93
2017-10-17T08:24:16.754Z,22.00
2017-10-17T08:26:45.029Z,23.83
2017-10-17T08:29:14.798Z,22.97
2017-10-17T08:31:43.066Z,28.10
2017-10-17T08:34:11.332Z,25.10
2017-10-17T08:36:39.638Z,25.37
2017-10-17T08:39:10.404Z,26.00
2017-10-17T08:41:38.675Z,25.10
2017-10-17T08:44:06.959Z,26.17
2017-10-17T08:46:35.239Z,24.33
2017-10-17T08:49:03.506Z,26.50
2017-10-17T08:51:31.762Z,25.00
2017-10-17T08:54:00.018Z,26.10
2017-10-17T08:56:28.300Z,25.73
2017-10-17T08:58:56.583Z,23.80
2017-10-17T09:01:25.619Z,27.70
2017-10-17T09:03:53.884Z,28.47
2017-10-17T09:06:22.170Z,27.33
2017-10-17T09:08:50.422Z,27.40
2017-10-17T09:11:19.459Z,26.33
2017-10-17T09:13:47.719Z,28.70
2017-10-17T09:16:16.747Z,28.67
2017-10-17T09:18:44.999Z,32.30
2017-10-17T09:21:14.043Z,28.90
2017-10-17T09:23:42.534Z,29.40
2017-10-17T09:26:11.140Z,28.50
2017-10-17T09:28:39.581Z,32.80
2017-10-17T09:31:08.224Z,27.50
2017-10-17T09:33:36.543Z,27.03
2017-10-17T09:36:04.803Z,29.30
2017-10-17T09:38:33.850Z,26.30
2017-10-17T09:41:02.127Z,28.73
2017-10-17T09:43:30.512Z,27.13
2017-10-17T09:45:58.792Z,29.33
2017-10-17T09:48:27.057Z,24.53
2017-10-17T09:50:55.306Z,25.13
2017-10-17T09:53:24.346Z,23.53
2017-10-17T09:55:52.602Z,25.73
2017-10-17T09:58:21.636Z,27.30
2017-10-17T10:00:49.887Z,28.13
2017-10-17T10:03:18.156Z,27.77
2017-10-17T10:05:47.174Z,28.27
2017-10-17T10:08:15.460Z,26.90
2017-10-17T10:10:43.712Z,29.03
2017-10-17T10:13:12.769Z,32.80
2017-10-17T10:15:41.031Z,25.13
2017-10-17T10:18:09.310Z,27.77
2017-10-17T10:20:38.348Z,25.20
2017-10-17T10:23:06.637Z,27.50
2017-10-17T10:25:34.896Z,23.93
2017-10-17T10:28:03.207Z,25.83
2017-10-17T10:30:31.499Z,26.20
2017-10-17T10:33:00.534Z,26.10
2017-10-17T10:35:28.787Z,29.07
2017-10-17T10:37:57.082Z,28.80
2017-10-17T10:40:25.341Z,24.00
2017-10-17T10:42:53.602Z,22.57
2017-10-17T10:45:21.863Z,24.03
2017-10-17T10:47:50.134Z,26.70
2017-10-17T10:50:18.377Z,24.80
2017-10-17T10:52:47.424Z,23.97
2017-10-17T10:55:15.673Z,29.17
2017-10-17T10:57:43.944Z,27.97
2017-10-17T11:00:12.990Z,26.60
2017-10-17T11:02:42.130Z,27.73
2017-10-17T11:05:11.151Z,22.37
2017-10-17T11:07:39.412Z,23.90
2017-10-17T11:10:08.471Z,23.30
2017-10-17T11:12:36.739Z,23.67
2017-10-17T11:15:05.011Z,26.20
2017-10-17T11:17:33.287Z,22.60
2017-10-17T11:20:01.547Z,20.83
2017-10-17T11:22:29.824Z,19.73
2017-10-17T11:24:58.840Z,20.10
2017-10-17T11:27:27.117Z,18.53
2017-10-17T11:29:55.366Z,21.37
2017-10-17T11:32:24.399Z,23.10
2017-10-17T11:34:52.680Z,24.90
2017-10-17T11:37:20.949Z,20.13
2017-10-17T11:39:49.964Z,20.80
2017-10-17T11:42:30.073Z,21.13
2017-10-17T11:44:58.321Z,18.10
2017-10-17T11:47:26.599Z,18.20
2017-10-17T11:49:54.853Z,18.70
2017-10-17T11:52:23.120Z,19.60
2017-10-17T11:54:52.145Z,21.03
2017-10-17T11:57:20.407Z,16.20
2017-10-17T11:59:48.667Z,17.80
2017-10-17T12:02:17.818Z,17.87
2017-10-17T12:04:46.077Z,21.50
2017-10-17T12:07:14.360Z,18.57
2017-10-17T12:09:42.623Z,18.27
2017-10-17T12:12:10.900Z,17.60
2017-10-17T12:14:39.923Z,16.87
2017-10-17T12:17:08.211Z,16.50
2017-10-17T12:19:36.472Z,15.87
2017-10-17T12:22:04.754Z,18.23
2017-10-17T12:24:33.014Z,21.47
2017-10-17T12:27:01.918Z,16.90
2017-10-17T12:29:30.946Z,19.03
2017-10-17T12:31:59.202Z,20.23
2017-10-17T12:34:28.252Z,25.40
2017-10-17T12:36:56.498Z,15.60
2017-10-17T12:39:24.847Z,17.63
2017-10-17T12:41:53.076Z,22.80
2017-10-17T12:44:21.337Z,16.67
2017-10-17T12:46:49.592Z,21.80
2017-10-17T12:49:18.628Z,17.70
2017-10-17T12:51:46.886Z,16.10
2017-10-17T12:54:15.941Z,15.47
2017-10-17T12:56:44.182Z,18.53
2017-10-17T12:59:12.462Z,19.47
2017-10-17T13:01:41.590Z,18.57
2017-10-17T13:04:09.863Z,21.20
2017-10-17T13:06:38.125Z,15.83
2017-10-17T13:09:06.424Z,15.80
2017-10-17T13:11:34.711Z,15.23
2017-10-17T13:14:02.978Z,18.07
2017-10-17T13:16:31.230Z,24.80
2017-10-17T13:19:00.265Z,21.03
2017-10-17T13:21:28.534Z,18.27
2017-10-17T13:23:56.801Z,18.90
2017-10-17T13:26:25.050Z,16.83
2017-10-17T13:28:54.086Z,18.33
2017-10-17T13:31:22.359Z,17.13
2017-10-17T13:33:51.388Z,16.87
2017-10-17T13:36:19.646Z,15.53
2017-10-17T13:38:47.922Z,16.97
2017-10-17T13:41:16.174Z,22.13
2017-10-17T13:43:44.450Z,24.03
2017-10-17T13:46:12.703Z,18.20
2017-10-17T13:48:40.977Z,19.90
2017-10-17T13:51:09.244Z,24.37
2017-10-17T13:53:37.527Z,17.93
2017-10-17T13:56:05.781Z,15.47
2017-10-17T13:58:34.824Z,16.40
2017-10-17T14:01:03.071Z,16.20
2017-10-17T14:03:31.351Z,14.73
2017-10-17T14:05:59.600Z,16.77
2017-10-17T14:08:28.648Z,19.37
2017-10-17T14:10:56.894Z,14.70
2017-10-17T14:13:25.931Z,12.93
2017-10-17T14:15:54.178Z,15.67
2017-10-17T14:18:22.490Z,13.80
2017-10-17T14:20:50.765Z,13.60
2017-10-17T14:23:19.031Z,13.90
2017-10-17T14:25:48.083Z,18.10
2017-10-17T14:28:16.359Z,17.30
2017-10-17T14:30:44.612Z,16.97
2017-10-17T14:33:12.887Z,17.37
2017-10-17T14:35:41.160Z,16.80
2017-10-17T14:38:09.451Z,11.93
2017-10-17T14:40:37.766Z,16.83
2017-10-17T14:43:29.730Z,13.40
2017-10-17T14:46:00.801Z,17.97
2017-10-17T14:48:29.836Z,18.87
2017-10-17T14:50:58.087Z,15.13
2017-10-17T14:53:26.364Z,18.43
2017-10-17T14:55:54.628Z,16.90
2017-10-17T14:58:22.883Z,18.83
2017-10-17T15:00:52.650Z,17.00
2017-10-17T15:03:20.920Z,15.43
2017-10-17T15:05:49.217Z,15.37
2017-10-17T15:08:17.487Z,14.90
2017-10-17T15:10:45.746Z,15.20
2017-10-17T15:13:14.781Z,17.60
2017-10-17T15:15:43.043Z,23.20
2017-10-17T15:18:11.323Z,25.37
2017-10-17T15:20:39.582Z,16.20
2017-10-17T15:23:08.634Z,19.03
2017-10-17T15:25:36.891Z,19.40
2017-10-17T15:28:05.186Z,17.73
2017-10-17T15:30:35.170Z,18.20
2017-10-17T15:33:04.452Z,19.73
2017-10-17T15:35:32.712Z,18.70
2017-10-17T15:38:00.975Z,15.87
2017-10-17T15:40:29.231Z,16.30
2017-10-17T15:42:57.514Z,12.90
2017-10-17T15:45:25.770Z,13.90
2017-10-17T15:47:54.815Z,16.37
2017-10-17T15:50:23.070Z,17.27
2017-10-17T15:52:51.356Z,16.27
2017-10-17T15:55:20.383Z,18.77
2017-10-17T15:57:48.683Z,17.07
2017-10-17T16:00:16.955Z,16.00
2017-10-17T16:02:45.207Z,14.53
2017-10-17T16:05:13.476Z,14.77
2017-10-17T16:07:41.739Z,16.40
2017-10-17T16:10:10.774Z,15.47
2017-10-17T16:12:39.035Z,23.80
2017-10-17T16:15:07.311Z,18.83
2017-10-17T16:17:35.576Z,17.40
2017-10-17T16:20:04.628Z,17.37
2017-10-17T16:22:32.879Z,15.17
2017-10-17T16:25:01.240Z,18.93
2017-10-17T16:27:29.474Z,16.47
2017-10-17T16:29:57.733Z,24.23
2017-10-17T16:32:26.000Z,17.27
2017-10-17T16:34:54.264Z,14.50
2017-10-17T16:37:23.279Z,15.67
2017-10-17T16:39:51.547Z,15.70
2017-10-17T16:42:20.571Z,22.60
2017-10-17T16:44:48.835Z,14.90
2017-10-17T16:47:17.088Z,17.23
2017-10-17T16:49:45.674Z,20.10
2017-10-17T16:52:13.924Z,21.70
2017-10-17T16:54:42.187Z,18.33
2017-10-17T16:57:10.445Z,23.87
2017-10-17T16:59:38.730Z,24.67
2017-10-17T17:02:07.073Z,21.50
2017-10-17T17:04:36.863Z,20.70
2017-10-17T17:07:05.135Z,19.30
2017-10-17T17:09:33.455Z,19.37
2017-10-17T17:12:01.708Z,21.70
2017-10-17T17:14:29.972Z,22.80
2017-10-17T17:16:58.243Z,21.60
2017-10-17T17:19:26.507Z,27.87
2017-10-17T17:21:55.579Z,18.67
2017-10-17T17:24:23.832Z,18.80
2017-10-17T17:26:52.101Z,20.23
2017-10-17T17:29:21.022Z,21.23
2017-10-17T17:31:49.294Z,18.40
2017-10-17T17:34:18.319Z,18.93
2017-10-17T17:36:46.576Z,25.70
2017-10-17T17:39:15.597Z,21.63
2017-10-17T17:41:44.355Z,20.00
2017-10-17T17:44:12.630Z,21.07
2017-10-17T17:46:40.879Z,20.07
2017-10-17T17:49:10.059Z,18.40
2017-10-17T17:51:38.318Z,22.00
2017-10-17T17:54:06.587Z,20.37
2017-10-17T17:56:34.850Z,25.33
2017-10-17T17:59:03.125Z,22.92
2017-10-17T18:01:31.381Z,26.67
2017-10-17T18:04:00.418Z,20.80
2017-10-17T18:06:28.680Z,20.27
2017-10-17T18:08:56.954Z,21.93
2017-10-17T18:11:25.227Z,22.90
2017-10-17T18:13:54.260Z,21.40
2017-10-17T18:16:22.509Z,21.37
2017-10-17T18:18:51.542Z,22.57
2017-10-17T18:21:19.833Z,18.67
2017-10-17T18:23:48.102Z,21.33
2017-10-17T18:26:16.439Z,18.77
2017-10-17T18:28:44.705Z,20.33
2017-10-17T18:31:14.467Z,18.73
2017-10-17T18:33:42.745Z,20.23
2017-10-17T18:36:10.992Z,24.57
2017-10-17T18:38:39.302Z,19.90
2017-10-17T18:41:08.340Z,18.00
2017-10-17T18:43:36.644Z,20.87
2017-10-17T18:46:04.885Z,24.67
2017-10-17T18:48:33.138Z,19.47
2017-10-17T18:51:01.413Z,19.20
2017-10-17T18:53:30.429Z,20.07
2017-10-17T18:55:58.700Z,18.80
2017-10-17T18:58:26.955Z,23.97
2017-10-17T19:00:55.294Z,18.30
2017-10-17T19:03:23.559Z,18.20
2017-10-17T19:05:52.555Z,19.83
2017-10-17T19:08:20.807Z,26.23
2017-10-17T19:10:49.848Z,20.47
2017-10-17T19:13:18.107Z,16.70
2017-10-17T19:15:46.389Z,15.47
2017-10-17T19:18:14.656Z,16.77
2017-10-17T19:20:43.698Z,16.73
2017-10-17T19:23:11.944Z,18.23
2017-10-17T19:25:40.226Z,18.77
2017-10-17T19:28:09.238Z,15.73
2017-10-17T19:30:37.518Z,17.90
2017-10-17T19:33:05.774Z,18.87
2017-10-17T19:35:34.811Z,18.80
2017-10-17T19:38:03.074Z,16.67
2017-10-17T19:40:31.364Z,15.50
2017-10-17T19:42:59.584Z,17.80
2017-10-17T19:45:30.367Z,19.03
2017-10-17T19:47:58.682Z,19.57
2017-10-17T19:50:26.937Z,17.37
2017-10-17T19:52:55.191Z,15.63
2017-10-17T19:55:23.475Z,15.10
2017-10-17T19:57:52.497Z,18.87
2017-10-17T20:00:20.772Z,16.43
2017-10-17T20:02:49.055Z,19.67
2017-10-17T20:05:17.328Z,16.07
2017-10-17T20:07:46.344Z,16.33
2017-10-17T20:10:14.615Z,16.00
2017-10-17T20:12:42.872Z,18.60
2017-10-17T20:15:11.175Z,16.10
2017-10-17T20:17:40.207Z,16.40
2017-10-17T20:20:08.487Z,20.00
2017-10-17T20:22:36.740Z,19.03
2017-10-17T20:25:05.032Z,14.63
2017-10-17T20:27:33.289Z,19.60
2017-10-17T20:30:02.323Z,17.70
2017-10-17T20:32:30.581Z,16.73
2017-10-17T20:34:59.623Z,19.33
2017-10-17T20:37:27.876Z,18.40
2017-10-17T20:39:56.176Z,16.33
2017-10-17T20:42:24.426Z,18.00
2017-10-17T20:44:53.465Z,16.20
2017-10-17T20:47:21.727Z,16.40
2017-10-17T20:49:49.990Z,17.43
2017-10-17T20:52:18.244Z,15.53
2017-10-17T20:54:46.561Z,16.17
2017-10-17T20:57:15.104Z,17.77
2017-10-17T20:59:43.613Z,19.53
2017-10-17T21:02:12.280Z,17.77
2017-10-17T21:04:40.612Z,23.10
2017-10-17T21:07:09.624Z,24.90
2017-10-17T21:09:37.896Z,19.30
2017-10-17T21:12:06.165Z,16.60
2017-10-17T21:14:35.198Z,19.10
2017-10-17T21:17:03.450Z,17.50
2017-10-17T21:19:31.724Z,20.53
2017-10-17T21:21:59.973Z,21.87
2017-10-17T21:24:28.311Z,18.10
2017-10-17T21:26:56.567Z,24.17
2017-10-17T21:29:24.851Z,20.73
2017-10-17T21:31:53.103Z,20.00
2017-10-17T21:34:22.134Z,19.13
2017-10-17T21:36:50.381Z,16.03
2017-10-17T21:39:19.414Z,16.20
2017-10-17T21:41:47.675Z,18.50
2017-10-17T21:44:16.695Z,23.67
2017-10-17T21:46:44.967Z,17.93
2017-10-17T21:49:14.010Z,24.73
2017-10-17T21:51:42.278Z,20.13
2017-10-17T21:54:10.542Z,18.37
2017-10-17T21:56:38.809Z,17.57
2017-10-17T21:59:07.070Z,19.70
2017-10-17T22:01:35.351Z,18.10
2017-10-17T22:04:04.416Z,15.50
2017-10-17T22:06:32.668Z,17.03
2017-10-17T22:09:00.934Z,19.30
2017-10-17T22:11:29.197Z,18.47
2017-10-17T22:13:58.263Z,18.63
2017-10-17T22:16:26.509Z,18.33
2017-10-17T22:18:54.759Z,26.03
2017-10-17T22:21:23.800Z,19.23
2017-10-17T22:23:52.051Z,15.60
2017-10-17T22:26:21.093Z,18.30
2017-10-17T22:28:49.347Z,16.03
2017-10-17T22:31:17.620Z,17.60
2017-10-17T22:33:45.871Z,18.90
2017-10-17T22:36:14.135Z,16.37
2017-10-17T22:38:42.384Z,15.80
2017-10-17T22:41:10.675Z,20.07
2017-10-17T22:43:38.926Z,20.23
2017-10-17T22:46:07.203Z,19.63
2017-10-17T22:48:35.475Z,19.17
2017-10-17T22:51:04.531Z,21.20
2017-10-17T22:53:32.787Z,17.20
2017-10-17T22:56:01.059Z,18.33
2017-10-17T22:58:29.335Z,19.00
2017-10-17T23:00:57.604Z,15.87
2017-10-17T23:03:26.627Z,15.70
2017-10-17T23:05:54.888Z,18.13
2017-10-17T23:08:23.154Z,15.63
2017-10-17T23:10:52.193Z,17.10
2017-10-17T23:13:20.455Z,17.87
2017-10-17T23:15:48.719Z,19.03
2017-10-17T23:21:18.268Z,19.43
2017-10-17T23:23:46.516Z,17.50
2017-10-17T23:26:14.791Z,15.73
2017-10-17T23:28:43.043Z,18.60
2017-10-17T23:31:11.319Z,18.63
2017-10-17T23:33:39.579Z,16.73
2017-10-17T23:36:07.844Z,19.03
2017-10-17T23:38:36.866Z,18.70
2017-10-17T23:41:05.135Z,15.33
2017-10-17T23:43:33.392Z,20.40
2017-10-17T23:46:02.427Z,15.87
2017-10-17T23:48:30.690Z,16.77
2017-10-17T23:50:59.723Z,15.30
2017-10-17T23:53:27.979Z,20.00
2017-10-17T23:55:56.282Z,16.20
2017-10-17T23:58:24.539Z,17.00
